Terminal Aerodrome Forecast
Issued by NWS Duluth, MN

Home | Current Version | Previous Version | Text Only | Print | Product List | Glossary On
Versions: 1 2 3 4 5 6 7 8 9 10 11 12 13 14 15 16 17 18 19 20 21 22 23 24 25 26 27 28 29 30 31 32
000
FTUS43 KDLH 232300
TAFDLH
TAF
KDLH 232333Z 2400/2424 29012KT P6SM OVC015
     FM240900 31007KT P6SM -SN OVC025
     FM241400 31007KT 6SM BR OVC013
     FM242100 03006KT P6SM OVC015=

USA.gov is the U.S. government's official web portal to all federal, state and local government web resources and services.